Time;durP1;ratioP1;P1;durP2;ratioP2;P2;SDS_P1;SDS_P2;PMS_P1;PMS_P2;Temp;Humidity;BMP_temperature;BMP_pressure;BME280_temperature;BME280_humidity;BME280_pressure;Samples;Min_cycle;Max_cycle;Signal;HPM_P1;HPM_P2
2023/02/04 00:00:59;;;;;;;37.10;7.15;;;4.30;99.90;;;;;;5055194;28;20456;-64
2023/02/04 00:03:24;;;;;;;45.13;7.10;;;4.20;99.90;;;;;;5055230;28;20048;-65
2023/02/04 00:05:50;;;;;;;58.95;8.25;;;4.20;99.90;;;;;;5053968;28;20087;-64
2023/02/04 00:08:16;;;;;;;47.63;7.35;;;4.30;99.90;;;;;;5054774;28;20098;-64
2023/02/04 00:10:41;;;;;;;46.55;7.47;;;4.20;99.90;;;;;;5054978;28;20055;-64
2023/02/04 00:13:07;;;;;;;48.50;8.70;;;4.10;99.90;;;;;;5054995;28;20042;-64
2023/02/04 00:15:32;;;;;;;56.28;7.63;;;4.10;99.90;;;;;;5054959;28;20025;-64
2023/02/04 00:17:58;;;;;;;55.03;8.55;;;4.10;99.90;;;;;;5054902;28;20036;-64
2023/02/04 00:20:24;;;;;;;57.97;9.50;;;4.20;99.90;;;;;;5053670;28;20414;-64
2023/02/04 00:22:50;;;;;;;44.80;7.93;;;4.30;99.90;;;;;;5054708;28;20546;-64
2023/02/04 00:25:16;;;;;;;53.22;7.75;;;4.20;99.90;;;;;;5054958;28;20032;-64
2023/02/04 00:27:41;;;;;;;67.07;10.25;;;4.20;99.90;;;;;;5054825;28;20387;-64
2023/02/04 00:30:08;;;;;;;46.20;7.85;;;4.20;99.90;;;;;;5052851;28;20029;-64
2023/02/04 00:32:33;;;;;;;61.50;8.98;;;4.20;99.90;;;;;;5053266;28;20078;-64
2023/02/04 00:35:03;;;;;;;45.40;7.72;;;4.20;99.90;;;;;;5054625;28;20392;-64
2023/02/04 00:37:29;;;;;;;58.08;8.52;;;4.10;99.90;;;;;;5053546;28;20029;-64
2023/02/04 00:39:55;;;;;;;52.33;7.70;;;4.10;99.90;;;;;;5054462;28;20025;-65
2023/02/04 00:42:20;;;;;;;51.08;8.55;;;4.10;99.90;;;;;;5054533;28;20124;-64
2023/02/04 00:44:46;;;;;;;58.10;8.45;;;4.10;99.90;;;;;;5054504;28;20033;-65
2023/02/04 00:47:11;;;;;;;47.05;8.27;;;4.20;99.90;;;;;;5054177;28;20544;-64
2023/02/04 00:49:37;;;;;;;58.20;8.75;;;4.30;99.90;;;;;;5054248;28;20058;-64
2023/02/04 00:52:03;;;;;;;58.40;8.38;;;4.40;99.90;;;;;;5054362;28;20036;-64
2023/02/04 00:54:28;;;;;;;50.67;8.15;;;4.40;99.90;;;;;;5054266;28;20426;-64
2023/02/04 00:56:54;;;;;;;44.97;6.93;;;4.40;99.90;;;;;;5054182;28;20095;-64
2023/02/04 00:59:19;;;;;;;45.30;7.18;;;4.40;99.90;;;;;;5054212;28;20052;-64
2023/02/04 01:01:45;;;;;;;48.53;8.02;;;4.40;99.90;;;;;;5054011;28;20079;-64
2023/02/04 01:04:10;;;;;;;51.67;9.13;;;4.40;99.90;;;;;;5053912;28;20075;-64
2023/02/04 01:06:36;;;;;;;58.90;9.48;;;4.40;99.90;;;;;;5053954;28;20033;-64
2023/02/04 01:09:02;;;;;;;54.47;7.53;;;4.40;99.90;;;;;;5054049;28;20074;-64
2023/02/04 01:11:28;;;;;;;50.53;7.88;;;4.30;99.90;;;;;;5052694;28;20025;-64
2023/02/04 01:13:54;;;;;;;50.15;7.60;;;4.40;99.90;;;;;;5053952;28;20447;-64
2023/02/04 01:16:20;;;;;;;61.88;8.73;;;4.50;99.90;;;;;;5053696;28;20060;-64
2023/02/04 01:18:45;;;;;;;53.50;8.85;;;4.50;99.90;;;;;;5053711;28;20061;-64
2023/02/04 01:21:11;;;;;;;64.20;9.07;;;4.50;99.90;;;;;;5053805;28;20371;-64
2023/02/04 01:23:37;;;;;;;49.92;7.75;;;4.60;99.90;;;;;;5053687;28;20032;-64
2023/02/04 01:26:02;;;;;;;62.92;9.15;;;4.60;99.90;;;;;;5053780;28;20041;-64
2023/02/04 01:28:28;;;;;;;55.75;7.22;;;4.70;99.90;;;;;;5053724;28;20025;-64
2023/02/04 01:30:54;;;;;;;60.08;9.43;;;4.80;99.90;;;;;;5053660;28;20032;-64
2023/02/04 01:33:19;;;;;;;54.40;7.68;;;4.80;99.90;;;;;;5053434;28;20017;-64
2023/02/04 01:35:45;;;;;;;50.67;7.85;;;4.70;99.90;;;;;;5053474;28;20418;-64
2023/02/04 01:38:10;;;;;;;58.42;8.40;;;4.80;99.90;;;;;;5053324;28;20025;-64
2023/02/04 01:40:36;;;;;;;58.00;8.48;;;4.80;99.90;;;;;;5053366;28;20051;-64
2023/02/04 01:43:02;;;;;;;46.88;7.63;;;4.80;99.90;;;;;;5051788;28;20024;-64
2023/02/04 01:45:29;;;;;;;45.05;8.23;;;4.80;99.90;;;;;;5053339;28;20108;-64
2023/02/04 01:47:55;;;;;;;49.70;8.38;;;4.80;99.90;;;;;;5053435;28;20029;-64
2023/02/04 01:50:21;;;;;;;52.70;9.32;;;4.80;99.90;;;;;;5052487;28;20021;-64
2023/02/04 01:52:46;;;;;;;48.88;8.27;;;4.80;99.90;;;;;;5053163;28;20025;-64
2023/02/04 01:55:15;;;;;;;55.65;9.52;;;4.80;99.90;;;;;;5053428;28;20540;-64
2023/02/04 01:57:41;;;;;;;58.80;8.95;;;4.80;99.90;;;;;;5052194;28;20029;-64
2023/02/04 02:00:20;;;;;;;38.88;8.23;;;4.80;99.90;;;;;;5053330;28;20494;-64
2023/02/04 02:02:49;;;;;;;48.05;9.68;;;4.80;99.90;;;;;;5051964;28;20021;-64
2023/02/04 02:05:21;;;;;;;50.97;8.85;;;4.90;99.90;;;;;;5053266;28;20048;-64
2023/02/04 02:07:48;;;;;;;55.25;8.93;;;4.90;99.90;;;;;;5052704;28;20048;-64
2023/02/04 02:10:14;;;;;;;50.10;8.65;;;4.90;99.90;;;;;;5052839;28;20383;-64
2023/02/04 02:12:41;;;;;;;59.13;8.45;;;5.00;99.90;;;;;;5053192;28;20493;-64
2023/02/04 02:15:08;;;;;;;49.20;8.05;;;5.00;99.90;;;;;;5053173;28;20159;-64
2023/02/04 02:17:33;;;;;;;51.20;7.32;;;5.00;99.90;;;;;;5052998;28;20526;-64
2023/02/04 02:19:59;;;;;;;59.17;8.48;;;5.00;99.90;;;;;;5052997;28;20036;-64
2023/02/04 02:22:32;;;;;;;34.53;6.60;;;5.10;99.90;;;;;;5053048;28;20479;-64
2023/02/04 02:24:57;;;;;;;46.30;7.53;;;5.10;99.90;;;;;;5053217;28;20025;-64
2023/02/04 02:27:23;;;;;;;57.22;9.30;;;5.00;99.90;;;;;;5052869;28;20037;-64
2023/02/04 02:29:50;;;;;;;53.13;8.10;;;5.10;99.90;;;;;;5051622;28;20120;-64
2023/02/04 02:32:16;;;;;;;42.78;7.30;;;5.20;99.90;;;;;;5051674;28;20017;-64
2023/02/04 02:34:42;;;;;;;45.67;6.90;;;5.20;99.90;;;;;;5052783;28;20033;-64
2023/02/04 02:37:08;;;;;;;51.72;7.68;;;5.20;99.90;;;;;;5051631;28;20378;-64
2023/02/04 02:39:35;;;;;;;54.63;7.28;;;5.30;99.90;;;;;;5052967;28;20037;-64
2023/02/04 02:42:01;;;;;;;46.72;7.32;;;5.30;99.90;;;;;;5052691;28;20052;-64
2023/02/04 02:44:28;;;;;;;54.20;8.23;;;5.30;99.90;;;;;;5052925;28;20029;-64
2023/02/04 02:46:54;;;;;;;53.85;9.50;;;5.30;99.90;;;;;;5052741;28;20067;-64
2023/02/04 02:49:20;;;;;;;49.40;7.10;;;5.30;99.90;;;;;;5051499;28;20460;-64
2023/02/04 02:51:47;;;;;;;54.53;7.97;;;5.40;99.90;;;;;;5052584;28;20028;-64
2023/02/04 02:54:24;;;;;;;55.13;8.90;;;5.40;99.90;;;;;;5054137;28;20471;-64
2023/02/04 02:56:51;;;;;;;49.10;8.80;;;5.50;99.90;;;;;;5056355;28;20029;-64
2023/02/04 02:59:17;;;;;;;46.00;7.78;;;5.50;99.90;;;;;;5055192;28;20064;-64
2023/02/04 03:01:43;;;;;;;47.33;8.07;;;5.50;99.90;;;;;;5055121;28;20028;-64
2023/02/04 03:04:10;;;;;;;57.85;8.88;;;5.50;99.90;;;;;;5056220;28;20032;-64
2023/02/04 03:06:36;;;;;;;58.30;8.18;;;5.50;99.90;;;;;;5055720;28;20032;-64
2023/02/04 03:09:01;;;;;;;47.10;7.30;;;5.50;99.90;;;;;;5056000;28;20027;-64
2023/02/04 03:11:28;;;;;;;50.78;8.07;;;5.50;99.90;;;;;;5056237;28;20128;-64
2023/02/04 03:13:56;;;;;;;57.50;7.88;;;5.50;99.90;;;;;;5056371;28;20144;-64
2023/02/04 03:16:21;;;;;;;57.30;8.93;;;5.50;99.90;;;;;;5056194;28;20032;-64
2023/02/04 03:18:48;;;;;;;58.90;8.77;;;5.50;99.90;;;;;;5056175;28;20108;-64
2023/02/04 03:21:14;;;;;;;47.03;7.90;;;5.50;99.90;;;;;;5056197;28;20434;-64
2023/02/04 03:23:39;;;;;;;56.20;7.80;;;5.40;99.90;;;;;;5055920;28;20056;-64
2023/02/04 03:26:06;;;;;;;53.47;7.82;;;5.40;99.90;;;;;;5055901;28;20044;-64
2023/02/04 03:28:31;;;;;;;45.47;7.53;;;5.40;99.90;;;;;;5055640;28;20040;-64
2023/02/04 03:30:57;;;;;;;56.15;8.13;;;5.40;99.90;;;;;;5054643;28;20033;-64
2023/02/04 03:33:30;;;;;;;51.65;7.72;;;5.40;99.90;;;;;;5055949;28;20053;-64
2023/02/04 03:35:57;;;;;;;51.45;7.03;;;5.40;99.90;;;;;;5054635;28;20141;-64
2023/02/04 03:38:23;;;;;;;47.95;8.05;;;5.40;99.90;;;;;;5055878;28;20036;-64
2023/02/04 03:40:48;;;;;;;48.10;7.53;;;5.40;99.90;;;;;;5055519;28;20032;-64
2023/02/04 03:43:14;;;;;;;55.08;7.80;;;5.40;99.90;;;;;;5055579;28;20120;-64
2023/02/04 03:45:40;;;;;;;55.00;8.10;;;5.40;99.90;;;;;;5055498;28;20081;-64
2023/02/04 03:48:05;;;;;;;43.13;8.15;;;5.40;99.90;;;;;;5054273;28;20029;-64
2023/02/04 03:50:31;;;;;;;51.22;7.55;;;5.40;99.90;;;;;;5055485;28;20083;-64
2023/02/04 03:52:56;;;;;;;44.67;7.25;;;5.40;99.90;;;;;;5055493;28;20052;-64
2023/02/04 03:55:22;;;;;;;52.47;8.40;;;5.40;99.90;;;;;;5055260;28;20029;-64
2023/02/04 03:57:47;;;;;;;54.40;7.57;;;5.40;99.90;;;;;;5055502;28;20029;-64
2023/02/04 04:00:13;;;;;;;38.25;7.65;;;5.40;99.90;;;;;;5055412;28;20040;-64
2023/02/04 04:02:40;;;;;;;54.20;7.88;;;5.30;99.90;;;;;;5055185;28;20036;-64
2023/02/04 04:05:07;;;;;;;52.65;8.32;;;5.30;99.90;;;;;;5053828;28;20029;-64
2023/02/04 04:07:32;;;;;;;51.13;7.47;;;5.30;99.90;;;;;;5054656;28;20098;-64
2023/02/04 04:09:58;;;;;;;45.72;7.47;;;5.30;99.90;;;;;;5055091;28;20103;-64
2023/02/04 04:12:23;;;;;;;58.20;7.97;;;5.30;99.90;;;;;;5055156;28;20360;-64
2023/02/04 04:14:49;;;;;;;45.50;7.97;;;5.30;99.90;;;;;;5055142;28;20021;-64
2023/02/04 04:17:14;;;;;;;48.47;7.63;;;5.30;99.90;;;;;;5054650;28;20119;-64
2023/02/04 04:19:40;;;;;;;52.50;7.50;;;5.30;99.90;;;;;;5054877;28;20112;-64
2023/02/04 04:22:06;;;;;;;52.22;8.52;;;5.30;99.90;;;;;;5054766;28;20098;-64
2023/02/04 04:24:32;;;;;;;66.53;8.90;;;5.30;99.90;;;;;;5054847;28;20505;-64
2023/02/04 04:26:57;;;;;;;39.85;7.53;;;5.30;99.90;;;;;;5054574;28;20544;-65
2023/02/04 04:29:23;;;;;;;57.97;8.48;;;5.20;99.90;;;;;;5054445;28;20021;-63
2023/02/04 04:31:48;;;;;;;49.42;7.32;;;5.30;99.90;;;;;;5054622;28;20021;-63
2023/02/04 04:34:14;;;;;;;43.53;7.15;;;5.20;99.90;;;;;;5054573;28;20025;-63
2023/02/04 04:36:39;;;;;;;54.72;7.55;;;5.20;99.90;;;;;;5054578;28;20051;-63
2023/02/04 04:39:05;;;;;;;47.45;7.30;;;5.10;99.90;;;;;;5054572;28;20059;-63
2023/02/04 04:41:30;;;;;;;55.85;8.27;;;5.10;99.90;;;;;;5054494;28;20047;-64
2023/02/04 04:43:56;;;;;;;43.70;6.72;;;5.00;99.90;;;;;;5054589;28;20029;-63
2023/02/04 04:46:21;;;;;;;44.15;7.75;;;5.00;99.90;;;;;;5054278;28;20021;-63
2023/02/04 04:48:47;;;;;;;56.05;7.60;;;5.00;99.90;;;;;;5054069;28;20032;-63
2023/02/04 04:51:13;;;;;;;53.15;7.88;;;5.00;99.90;;;;;;5054255;28;20060;-63
2023/02/04 04:53:38;;;;;;;59.08;8.15;;;5.10;99.90;;;;;;5054289;28;20104;-63
2023/02/04 04:56:04;;;;;;;50.88;9.77;;;5.10;99.90;;;;;;5054228;28;20024;-63
2023/02/04 04:58:29;;;;;;;53.17;8.05;;;5.20;99.90;;;;;;5054434;28;20043;-63
2023/02/04 05:00:55;;;;;;;52.95;9.45;;;5.30;99.90;;;;;;5054293;28;20051;-63
2023/02/04 05:03:20;;;;;;;60.13;10.13;;;5.30;99.90;;;;;;5054107;28;20021;-63
2023/02/04 05:05:46;;;;;;;49.45;8.45;;;5.30;99.90;;;;;;5053970;28;20037;-63
2023/02/04 05:08:12;;;;;;;46.03;7.68;;;5.30;99.90;;;;;;5053816;28;20120;-63
2023/02/04 05:10:40;;;;;;;48.25;7.75;;;5.40;99.90;;;;;;5054149;28;20075;-63
2023/02/04 05:13:05;;;;;;;58.10;9.32;;;5.40;99.90;;;;;;5053826;28;20035;-63
2023/02/04 05:15:31;;;;;;;57.13;9.38;;;5.40;99.90;;;;;;5053779;28;20029;-65
2023/02/04 05:17:57;;;;;;;51.83;8.88;;;5.40;99.90;;;;;;5053381;28;20070;-63
2023/02/04 05:20:23;;;;;;;43.33;7.55;;;5.50;99.90;;;;;;5053665;28;20051;-63
2023/02/04 05:22:49;;;;;;;44.35;7.10;;;5.50;99.90;;;;;;5053865;28;20021;-63
2023/02/04 05:25:15;;;;;;;47.20;8.00;;;5.50;99.90;;;;;;5053609;28;20033;-63
2023/02/04 05:27:42;;;;;;;52.97;8.07;;;5.50;99.90;;;;;;5052582;28;20032;-63
2023/02/04 05:30:10;;;;;;;48.65;7.68;;;5.50;99.90;;;;;;5053672;28;20029;-63
2023/02/04 05:32:36;;;;;;;55.20;8.80;;;5.60;99.90;;;;;;5053523;28;20028;-63
2023/02/04 05:35:03;;;;;;;49.00;8.15;;;5.60;99.90;;;;;;5053706;28;20032;-63
2023/02/04 05:37:28;;;;;;;51.38;8.18;;;5.60;99.90;;;;;;5052432;28;20028;-63
2023/02/04 05:39:54;;;;;;;49.55;8.00;;;5.60;99.90;;;;;;5053523;28;20505;-63
2023/02/04 05:42:19;;;;;;;45.75;7.38;;;5.60;99.90;;;;;;5053344;28;20032;-63
2023/02/04 05:44:45;;;;;;;48.22;6.88;;;5.60;99.90;;;;;;5053568;28;20040;-63
2023/02/04 05:47:10;;;;;;;46.65;7.90;;;5.60;99.90;;;;;;5052216;28;20044;-63
2023/02/04 05:49:36;;;;;;;45.78;8.35;;;5.60;99.90;;;;;;5053327;28;20033;-63
2023/02/04 05:52:01;;;;;;;52.40;8.07;;;5.60;99.90;;;;;;5053297;28;20075;-63
2023/02/04 05:54:27;;;;;;;52.65;8.20;;;5.60;99.90;;;;;;5053519;28;20527;-63
2023/02/04 05:56:53;;;;;;;57.72;7.93;;;5.60;99.90;;;;;;5053096;28;20021;-63
2023/02/04 05:59:18;;;;;;;57.15;8.57;;;5.60;99.90;;;;;;5053099;28;20021;-64
2023/02/04 06:01:44;;;;;;;49.65;7.50;;;5.60;99.90;;;;;;5053058;28;20386;-64
2023/02/04 06:04:09;;;;;;;53.40;8.27;;;5.50;99.90;;;;;;5053041;28;20040;-64
2023/02/04 06:06:35;;;;;;;61.90;7.40;;;5.50;99.90;;;;;;5053040;28;20021;-64
2023/02/04 06:09:00;;;;;;;38.53;6.85;;;5.50;99.90;;;;;;5053145;28;20025;-64
2023/02/04 06:11:26;;;;;;;40.10;7.57;;;5.50;99.90;;;;;;5051991;28;20095;-63
2023/02/04 06:13:52;;;;;;;44.60;7.32;;;5.50;99.90;;;;;;5053174;28;20032;-64
2023/02/04 06:16:17;;;;;;;35.58;6.20;;;5.50;99.90;;;;;;5053175;28;20064;-63
2023/02/04 06:18:43;;;;;;;43.95;7.55;;;5.50;99.90;;;;;;5052915;28;20029;-63
2023/02/04 06:21:08;;;;;;;41.13;7.03;;;5.50;99.90;;;;;;5053007;28;20060;-63
2023/02/04 06:23:34;;;;;;;47.42;7.53;;;5.50;99.90;;;;;;5053147;28;20171;-64
2023/02/04 06:26:01;;;;;;;34.90;6.57;;;5.40;99.90;;;;;;5053029;28;20055;-63
2023/02/04 06:28:26;;;;;;;35.17;6.78;;;5.40;99.90;;;;;;5053203;28;20091;-64
2023/02/04 06:30:52;;;;;;;48.92;6.82;;;5.40;99.90;;;;;;5056916;28;20052;-63
2023/02/04 06:33:18;;;;;;;35.10;6.90;;;5.40;99.90;;;;;;5057128;28;20029;-63
2023/02/04 06:35:43;;;;;;;44.00;7.13;;;5.40;99.90;;;;;;5056877;28;20020;-63
2023/02/04 06:38:09;;;;;;;38.83;6.97;;;5.30;99.90;;;;;;5056768;28;20471;-63
2023/02/04 06:40:34;;;;;;;33.70;5.90;;;5.30;99.90;;;;;;5056792;28;20029;-63
2023/02/04 06:42:59;;;;;;;40.42;6.47;;;5.30;99.90;;;;;;5056925;28;20093;-63
2023/02/04 06:45:25;;;;;;;55.30;8.38;;;5.30;99.90;;;;;;5056500;28;20048;-63
2023/02/04 06:47:50;;;;;;;33.70;8.68;;;5.30;99.90;;;;;;5056486;28;20053;-63
2023/02/04 06:50:17;;;;;;;42.38;6.80;;;5.20;99.90;;;;;;5056589;28;20040;-63
2023/02/04 06:52:45;;;;;;;42.47;7.50;;;5.20;99.90;;;;;;5056710;28;20486;-63
2023/02/04 06:55:11;;;;;;;38.10;7.30;;;5.20;99.90;;;;;;5056698;28;20025;-64
2023/02/04 06:57:37;;;;;;;43.40;6.50;;;5.20;99.90;;;;;;5056524;28;20021;-63
2023/02/04 07:00:03;;;;;;;38.10;7.50;;;5.20;99.90;;;;;;5056344;28;20029;-63
2023/02/04 07:02:29;;;;;;;31.15;5.40;;;5.10;99.90;;;;;;5056416;28;20025;-64
2023/02/04 07:04:54;;;;;;;42.95;7.07;;;5.20;99.90;;;;;;5056185;28;20037;-63
2023/02/04 07:07:20;;;;;;;29.75;6.13;;;5.20;99.90;;;;;;5055957;28;20037;-63
2023/02/04 07:09:45;;;;;;;36.05;7.38;;;5.20;99.90;;;;;;5056011;28;20056;-64
2023/02/04 07:12:11;;;;;;;55.30;8.27;;;5.20;99.90;;;;;;5056114;28;20060;-63
2023/02/04 07:14:36;;;;;;;53.30;8.95;;;5.20;99.90;;;;;;5055918;28;20021;-63
2023/02/04 07:17:02;;;;;;;36.70;6.45;;;5.20;99.90;;;;;;5056137;28;20033;-63
2023/02/04 07:19:28;;;;;;;32.13;7.43;;;5.20;99.90;;;;;;5056178;28;20032;-63
2023/02/04 07:21:55;;;;;;;36.60;7.05;;;5.20;99.90;;;;;;5055910;28;20033;-63
2023/02/04 07:24:22;;;;;;;33.67;7.35;;;5.20;99.90;;;;;;5056004;28;20395;-63
2023/02/04 07:26:48;;;;;;;29.58;6.22;;;5.20;99.90;;;;;;5055831;28;20033;-63
2023/02/04 07:29:13;;;;;;;32.97;6.63;;;5.10;99.90;;;;;;5055949;28;20104;-63
2023/02/04 07:31:39;;;;;;;36.63;8.13;;;5.20;99.90;;;;;;5055504;28;20490;-64
2023/02/04 07:34:04;;;;;;;35.28;7.82;;;5.20;99.90;;;;;;5055740;28;20022;-64
2023/02/04 07:36:30;;;;;;;37.83;7.35;;;5.20;99.90;;;;;;5055725;28;20486;-63
2023/02/04 07:38:55;;;;;;;41.78;7.50;;;5.30;99.90;;;;;;5055865;28;20056;-63
2023/02/04 07:41:21;;;;;;;37.08;7.00;;;5.20;99.90;;;;;;5055289;28;20040;-63
2023/02/04 07:43:46;;;;;;;44.97;7.30;;;5.30;99.90;;;;;;5055556;28;20025;-64
2023/02/04 07:46:12;;;;;;;32.25;6.82;;;5.40;99.90;;;;;;5055528;28;20036;-63
2023/02/04 07:48:38;;;;;;;42.80;6.80;;;5.40;99.90;;;;;;5055524;28;20025;-63
2023/02/04 07:51:04;;;;;;;38.53;7.18;;;5.50;99.90;;;;;;5055368;28;20068;-63
2023/02/04 07:53:29;;;;;;;44.00;7.10;;;5.50;99.90;;;;;;5055617;28;20067;-63
2023/02/04 07:55:55;;;;;;;52.65;8.80;;;5.60;99.90;;;;;;5055286;28;20471;-64
2023/02/04 07:58:21;;;;;;;45.05;8.00;;;5.90;99.90;;;;;;5055217;28;20499;-64
2023/02/04 08:00:47;;;;;;;47.72;7.40;;;5.90;99.90;;;;;;5055097;28;20422;-64
2023/02/04 08:03:12;;;;;;;49.75;7.72;;;6.00;99.90;;;;;;5055212;28;20079;-64
2023/02/04 08:05:38;;;;;;;41.67;8.32;;;6.10;99.90;;;;;;5055082;28;20029;-64
2023/02/04 08:08:04;;;;;;;43.88;7.47;;;6.30;99.90;;;;;;5054827;28;20098;-64
2023/02/04 08:10:29;;;;;;;44.05;7.45;;;6.30;99.90;;;;;;5055122;28;20372;-64
2023/02/04 08:12:55;;;;;;;48.25;8.35;;;6.40;99.90;;;;;;5054930;28;20061;-64
2023/02/04 08:15:20;;;;;;;37.88;7.95;;;6.60;99.90;;;;;;5055118;28;20025;-64
2023/02/04 08:17:46;;;;;;;43.25;7.72;;;6.80;99.90;;;;;;5054918;28;20025;-64
2023/02/04 08:20:12;;;;;;;35.92;7.82;;;7.00;99.90;;;;;;5055121;28;20475;-64
2023/02/04 08:22:37;;;;;;;48.65;8.20;;;7.10;99.90;;;;;;5054690;28;20029;-64
2023/02/04 08:25:04;;;;;;;44.05;8.95;;;7.20;99.90;;;;;;5054849;28;20044;-65
2023/02/04 08:27:30;;;;;;;60.25;13.05;;;7.30;99.90;;;;;;5053693;28;20052;-64
2023/02/04 08:29:55;;;;;;;43.90;9.52;;;7.30;99.90;;;;;;5054661;28;20025;-64
2023/02/04 08:32:21;;;;;;;55.28;9.63;;;7.20;99.90;;;;;;5054817;28;20032;-64
2023/02/04 08:34:47;;;;;;;43.47;8.70;;;7.30;99.90;;;;;;5054577;28;20025;-64
2023/02/04 08:37:13;;;;;;;57.53;9.38;;;7.40;99.90;;;;;;5054651;28;20025;-64
2023/02/04 08:39:44;;;;;;;44.65;7.78;;;7.40;99.90;;;;;;5054482;28;20394;-64
2023/02/04 08:42:10;;;;;;;51.10;9.27;;;7.60;99.90;;;;;;5054530;28;20109;-64
2023/02/04 08:44:36;;;;;;;50.30;8.77;;;7.60;99.90;;;;;;5054359;28;20056;-64
2023/02/04 08:47:01;;;;;;;44.65;8.48;;;7.90;99.90;;;;;;5054390;28;20086;-64
2023/02/04 08:49:27;;;;;;;56.17;7.97;;;8.50;99.90;;;;;;5054279;28;20410;-64
2023/02/04 08:51:52;;;;;;;43.95;8.98;;;8.30;99.90;;;;;;5053279;28;20029;-64
2023/02/04 08:54:18;;;;;;;41.83;8.18;;;8.50;99.90;;;;;;5054133;28;20021;-64
2023/02/04 08:56:43;;;;;;;37.33;7.65;;;8.50;99.90;;;;;;5052909;28;20021;-64
2023/02/04 08:59:09;;;;;;;44.85;8.07;;;8.30;99.90;;;;;;5054262;28;20037;-64
2023/02/04 09:01:34;;;;;;;50.58;8.25;;;8.20;99.90;;;;;;5054241;28;20044;-63
2023/02/04 09:04:00;;;;;;;51.25;9.63;;;7.70;99.90;;;;;;5054032;28;20104;-63
2023/02/04 09:06:25;;;;;;;40.58;7.32;;;7.50;99.90;;;;;;5053715;28;20419;-64
2023/02/04 09:08:51;;;;;;;42.63;9.25;;;7.40;99.90;;;;;;5053804;28;20035;-64
2023/02/04 09:11:16;;;;;;;49.50;9.18;;;7.40;99.90;;;;;;5053771;28;20071;-64
2023/02/04 09:13:42;;;;;;;41.17;8.40;;;7.40;99.90;;;;;;5053896;28;20052;-64
2023/02/04 09:16:07;;;;;;;51.58;10.35;;;7.50;99.90;;;;;;5053828;28;20096;-64
2023/02/04 09:18:33;;;;;;;46.97;9.50;;;7.50;99.90;;;;;;5053802;28;20033;-64
2023/02/04 09:20:59;;;;;;;57.17;10.35;;;7.70;99.90;;;;;;5053791;28;20025;-64
2023/02/04 09:23:25;;;;;;;45.78;9.40;;;7.80;99.90;;;;;;5053762;28;20029;-64
2023/02/04 09:25:50;;;;;;;39.15;9.55;;;7.60;99.90;;;;;;5053575;28;20021;-63
2023/02/04 09:28:16;;;;;;;49.05;10.20;;;7.40;99.90;;;;;;5053459;28;20032;-63
2023/02/04 09:30:44;;;;;;;50.63;10.57;;;7.40;99.90;;;;;;5053460;28;20021;-64
2023/02/04 09:33:11;;;;;;;48.05;10.38;;;7.40;99.90;;;;;;5052587;28;20033;-64
2023/02/04 09:35:37;;;;;;;49.00;11.38;;;7.50;99.90;;;;;;5053519;28;20387;-64
2023/02/04 09:38:03;;;;;;;50.80;9.23;;;7.60;99.90;;;;;;5052383;28;20025;-64
2023/02/04 09:40:34;;;;;;;58.55;10.45;;;7.70;99.90;;;;;;5053655;28;20371;-64
2023/02/04 09:43:01;;;;;;;53.47;10.77;;;7.90;99.90;;;;;;5053249;28;20029;-64
2023/02/04 09:45:32;;;;;;;45.47;9.68;;;7.80;99.90;;;;;;5053072;28;20082;-64
2023/02/04 09:48:00;;;;;;;43.17;10.20;;;7.60;99.90;;;;;;5051956;28;20032;-64
2023/02/04 09:50:28;;;;;;;50.17;10.15;;;7.60;99.90;;;;;;5053432;28;20501;-64
2023/02/04 09:52:57;;;;;;;43.15;9.10;;;7.90;99.90;;;;;;5053439;28;20029;-64
2023/02/04 09:55:29;;;;;;;48.20;10.30;;;7.80;99.90;;;;;;5053101;28;20024;-64
2023/02/04 09:57:56;;;;;;;45.37;9.80;;;8.10;99.90;;;;;;5053216;28;20032;-64
2023/02/04 10:00:24;;;;;;;42.17;9.73;;;8.20;99.90;;;;;;5052989;28;20103;-64
2023/02/04 10:02:50;;;;;;;47.95;10.13;;;8.90;99.90;;;;;;5053041;28;20029;-64
2023/02/04 10:05:20;;;;;;;46.42;8.00;;;9.20;99.90;;;;;;5053107;28;20032;-64
2023/02/04 10:07:46;;;;;;;44.30;9.20;;;9.40;99.90;;;;;;5052605;28;20045;-64
2023/02/04 10:10:17;;;;;;;36.83;8.65;;;9.40;99.90;;;;;;5052902;28;20036;-64
2023/02/04 10:12:44;;;;;;;34.60;8.07;;;9.30;99.90;;;;;;5053221;28;20049;-64
2023/02/04 10:15:19;;;;;;;41.65;9.18;;;8.90;99.90;;;;;;5053047;28;20418;-64
2023/02/04 10:17:46;;;;;;;44.80;10.38;;;8.80;99.90;;;;;;5053151;28;20474;-64
2023/02/04 10:20:14;;;;;;;33.50;8.15;;;9.00;99.90;;;;;;5052955;28;20416;-64
2023/02/04 10:22:41;;;;;;;32.08;7.43;;;9.10;99.90;;;;;;5051712;28;20394;-64
2023/02/04 10:25:12;;;;;;;31.13;7.68;;;9.20;99.90;;;;;;5052825;28;20147;-64
2023/02/04 10:27:56;;;;;;;38.15;8.75;;;9.50;99.90;;;;;;5052653;28;20502;-64
2023/02/04 10:30:26;;;;;;;36.28;8.38;;;9.70;99.90;;;;;;5052654;28;20078;-64
2023/02/04 10:32:53;;;;;;;34.58;7.47;;;9.80;99.90;;;;;;5052169;28;20166;-64
2023/02/04 10:35:21;;;;;;;31.92;7.82;;;10.50;99.90;;;;;;5051647;28;20052;-64
2023/02/04 10:37:47;;;;;;;41.28;7.15;;;11.00;99.90;;;;;;5052736;28;20032;-64
2023/02/04 10:40:34;;;;;;;30.75;7.68;;;11.10;99.90;;;;;;5052769;28;20087;-64
2023/02/04 10:43:09;;;;;;;31.77;6.60;;;11.00;99.90;;;;;;5052905;28;20073;-64
2023/02/04 10:45:36;;;;;;;29.05;6.82;;;10.50;99.90;;;;;;5051734;28;20029;-65
2023/02/04 10:48:02;;;;;;;35.78;8.40;;;9.90;99.90;;;;;;5052649;28;20067;-64
2023/02/04 10:50:29;;;;;;;29.02;6.50;;;10.70;99.90;;;;;;5052647;28;20479;-64
2023/02/04 10:55:45;;;;;;;31.02;6.97;;;10.90;99.90;;;;;;5051405;28;20040;-64
2023/02/04 10:58:15;;;;;;;29.25;6.32;;;10.60;99.90;;;;;;5051397;28;20061;-64
2023/02/04 11:00:41;;;;;;;31.13;6.75;;;10.10;99.90;;;;;;5051376;28;20471;-64
2023/02/04 11:03:21;;;;;;;30.30;7.05;;;10.10;99.90;;;;;;5052398;28;20025;-64
2023/02/04 11:05:48;;;;;;;30.23;6.15;;;9.70;99.90;;;;;;5051523;28;20025;-64
2023/02/04 11:08:23;;;;;;;23.20;5.93;;;9.40;99.90;;;;;;5052143;28;20053;-64
2023/02/04 11:11:06;;;;;;;24.73;6.60;;;9.00;99.90;;;;;;5052509;28;20052;-64
2023/02/04 11:13:43;;;;;;;24.48;5.80;;;8.70;99.90;;;;;;5051345;28;20158;-64
2023/02/04 11:16:29;;;;;;;27.20;6.50;;;8.50;99.90;;;;;;5054184;28;20063;-64
2023/02/04 11:18:59;;;;;;;33.22;7.10;;;8.50;99.90;;;;;;5056010;28;20037;-64
2023/02/04 11:26:51;;;;;;;26.98;7.10;;;8.30;99.90;;;;;;5070454;28;20888;-64
2023/02/04 11:29:29;;;;;;;33.83;7.35;;;8.40;99.90;;;;;;5070736;28;20564;-64
2023/02/04 11:32:01;;;;;;;26.88;6.82;;;8.20;99.90;;;;;;5070643;28;20033;-64
2023/02/04 11:34:29;;;;;;;33.17;6.93;;;8.20;99.90;;;;;;5069220;28;20506;-64
2023/02/04 11:37:03;;;;;;;27.80;6.57;;;8.20;99.90;;;;;;5070286;28;20025;-64
2023/02/04 11:39:41;;;;;;;33.45;6.30;;;8.30;99.90;;;;;;5070205;28;20032;-64
2023/02/04 11:42:18;;;;;;;21.15;4.88;;;8.40;99.90;;;;;;5070456;28;20076;-64
2023/02/04 11:44:54;;;;;;;29.00;6.35;;;8.60;99.90;;;;;;5070110;28;20040;-64
2023/02/04 11:47:22;;;;;;;23.35;6.22;;;8.50;99.90;;;;;;5070182;28;20035;-64
2023/02/04 11:50:01;;;;;;;18.63;5.35;;;8.40;99.90;;;;;;5070014;28;20057;-64
2023/02/04 11:52:27;;;;;;;24.30;5.75;;;8.40;99.90;;;;;;5068951;28;20056;-64
2023/02/04 11:54:55;;;;;;;30.40;6.18;;;8.20;99.90;;;;;;5069953;28;20056;-64
2023/02/04 11:57:21;;;;;;;21.20;5.95;;;8.20;99.90;;;;;;5069748;28;20115;-64
2023/02/04 11:59:46;;;;;;;17.73;5.80;;;8.10;99.90;;;;;;5068752;28;20056;-64
2023/02/04 12:02:18;;;;;;;23.42;6.18;;;8.20;99.90;;;;;;5069916;28;20458;-64
2023/02/04 12:04:55;;;;;;;21.75;6.13;;;8.20;99.90;;;;;;5069888;28;20478;-64
2023/02/04 12:07:24;;;;;;;25.15;6.57;;;8.20;99.90;;;;;;5068520;28;20021;-64
2023/02/04 12:09:50;;;;;;;17.65;5.38;;;8.30;99.90;;;;;;5068435;28;20036;-64
2023/02/04 12:12:24;;;;;;;20.88;5.45;;;8.10;99.90;;;;;;5069571;28;20025;-64
2023/02/04 12:15:07;;;;;;;21.83;6.50;;;8.20;99.90;;;;;;5069769;28;20033;-64
2023/02/04 12:17:33;;;;;;;16.50;6.22;;;8.20;99.90;;;;;;5069586;28;20505;-64
2023/02/04 12:19:59;;;;;;;22.05;6.05;;;8.20;99.90;;;;;;5069450;28;20071;-64
2023/02/04 12:22:25;;;;;;;32.47;6.30;;;8.20;99.90;;;;;;5069372;28;20029;-64
2023/02/04 12:24:51;;;;;;;24.30;5.40;;;8.20;99.90;;;;;;5069093;28;20444;-64
2023/02/04 12:27:17;;;;;;;27.30;6.55;;;8.30;99.90;;;;;;5069544;28;20016;-64
2023/02/04 12:29:42;;;;;;;24.85;5.65;;;8.50;99.90;;;;;;5069020;28;20048;-64
2023/02/04 12:32:08;;;;;;;18.08;5.82;;;8.40;99.90;;;;;;5069225;28;20032;-64
2023/02/04 12:34:34;;;;;;;26.10;6.22;;;8.40;99.90;;;;;;5069415;28;20056;-64
2023/02/04 12:36:59;;;;;;;25.80;7.78;;;8.60;99.90;;;;;;5062325;28;20478;-64
2023/02/04 12:39:25;;;;;;;20.90;7.10;;;8.50;99.90;;;;;;5056102;28;20025;-65
2023/02/04 12:41:50;;;;;;;26.20;6.97;;;8.60;99.90;;;;;;5055843;28;20025;-64
2023/02/04 12:44:16;;;;;;;21.70;6.50;;;8.40;99.90;;;;;;5055801;28;20395;-64
2023/02/04 12:46:43;;;;;;;25.63;6.95;;;8.40;99.90;;;;;;5055663;28;20483;-64
2023/02/04 12:49:08;;;;;;;24.80;7.18;;;8.50;99.90;;;;;;5055748;28;20489;-65
2023/02/04 12:51:34;;;;;;;22.08;7.30;;;8.50;99.90;;;;;;5055648;28;20025;-64